°C

Conditions at local time : on    Forecast:

Nearby METAR Reports

EGKA - Shoreham-By-Sea, United Kingdom
Distance from station: ENE 4mi, 6km
Updated: Mon, 18-Jan-2021 3:50pm GMT
Partly Cloudy
Partly Cloudy
 Wind from SW
Wind: SW 10 mph , 17 km/h
Temperature: 7°C
Wind Chill: 4°C
Dew Point: 6°C
Humidity: 93%
Barometer: 1020 hPa
Clouds: Partly Cloudy
Visibility: 6 miles , 10 km
Cloud details: Few Clouds 549 m
Partly Cloudy 1433 m
2021/01/18 15:50 EGKA 181550Z 22009KT 9999 FEW018 SCT047 07/06 Q1020
EGKK - London/Gatwick A, United Kingdom
Distance from station: NNE 24mi, 39km
Updated: Mon, 18-Jan-2021 3:50pm GMT
Partly Cloudy
Partly Cloudy
 Wind from SW
Wind: SW 8 mph , 13 km/h
Temperature: 7°C
Wind Chill: 5°C
Dew Point: 4°C
Humidity: 81%
Barometer: 1020 hPa
Clouds: Partly Cloudy
Visibility: 6 miles , 10 km
Cloud details: Partly Cloudy 1097 m
2021/01/18 15:50 EGKK 181550Z 22007KT 9999 SCT036 07/04 Q1020
 
EGLF - Farnborough, United Kingdom
Distance from station: NNW 37mi, 59km
Updated: Mon, 18-Jan-2021 3:50pm GMT
Mostly Cloudy
Mostly Cloudy
 Wind from SSW
Wind: SSW 9 mph , 15 km/h
Temperature: 7°C
Wind Chill: 4°C
Dew Point: 4°C
Humidity: 81%
Barometer: 1019 hPa
Clouds: Mostly Cloudy
Visibility: 6 miles , 10 km
Cloud details: Mostly Cloudy 945 m
2021/01/18 15:50 EGLF 181550Z AUTO 21008KT 9999 BKN031/// 07/04 Q1019
EGVO - Odiham Raf, United Kingdom
Distance from station: NW 38mi, 61km
Updated: Mon, 18-Jan-2021 3:50pm GMT
Mostly Cloudy
Mostly Cloudy
 Wind from SSW
Wind: SSW 10 mph , 17 km/h
Temperature: 7°C
Wind Chill: 4°C
Dew Point: 4°C
Humidity: 81%
Barometer: 1019 hPa
Clouds: Mostly Cloudy
Visibility: 6 miles , 10 km
Cloud details: Partly Cloudy 549 m
Partly Cloudy 914 m
Mostly Cloudy 3658 m
2021/01/18 15:50 EGVO 181550Z 20009KT 9999 SCT018 SCT030 BKN120 07/04 Q1019 TEMPO FEW018 SCT030 RMK WHT TEMPO BLU